KMTH/MTH METAR and TAF weather

Enter ICAO airport designator
Station Type Date Time Source
KMTH METAR 2019/12/10 18:53 UTC NOAA

KMTH 101853Z AUTO 12008KT 10SM CLR 29/23 A3005 RMK AO2 SLP174 T02890233


Station Type Date Time Source
KMTH Decoded METAR 2019/12/10 18:53 UTC NOAA

MARATHON AIRPORT, FL, United States (KMTH) 24-44N 81-03W 2M
Dec 10, 2019 - 01:53 PM EST / 2019.12.10 1853 UTC
Wind: from the ESE (120 degrees) at 9 MPH (8 KT):0
Visibility: 10 mile(s):0
Sky conditions: clear
Temperature: 84.0 F (28.9 C)
Dew Point: 73.9 F (23.3 C)
Relative Humidity: 71%
Pressure (altimeter): 30.05 in. Hg (1017 hPa)
ob: KMTH 101853Z AUTO 12008KT 10SM CLR 29/23 A3005 RMK AO2 SLP174 T02890233
cycle: 19

Station Type Date Time Source
KMTH TAF 2019/12/10 18:48 UTC NOAA

KMTH 101745Z 1018/1118 12008KT P6SM FEW025 SCT040

Example: see airport list